Gracey, Kentucky
Current Conditions -  °F | °C
As of 8:58 PM on Saturday 25 Oct 2014 (Local Time) from KHOP Reporting Station
Clear Clear  
Wind Chill: 63°   Ceiling: Unl
Heat Index: 63°   Visibility: 10mi
Dew Point: 63°   Wind: 3mph
Humidity: 100%   Direction: 230°SW
Pressure: 30.02"   Gusts: NA
Location:  36.88°N, 87.66°W
Report Text: KHOP 260158Z AUTO 23003KT 10SM CLR 17/17 A3002 RMK AO2 SLP166 T01700170
Loading
Personal Weather Stations






























Interactive Weather Map
Tropical Storm Tracking
New forecast layout! Learn more

10-Day Weather Forecast

Advertisements
Track Severe Weather on mobile